Welcome to our Virtual Airline
Sign-in:

Flight MFC37101

  • Submitted By: James Smith
  • Departure Airport: Kodiak Airport (PADQ)
  • Arrival Airport: Port Williams (KPR)
  • Aircraft: ICON A5 (N0A5MM)
  • Flight Time: 00.36.44
  • Date Submitted: 18/12/30
  • Route: STOP-OVER AT KITOI BAY SPB (KKB)
  • Status: Accepted
Flight Details
Gross Revenue:
(250 load / $ 48.00 per unit
$ 12, 000.00
Fuel Cost:
(7.71107 fuel used @ 5.1 / unit)
$ 39.33

Additional Log Information:

View Log

FS[10:00] ----- Flight Opened -----
FS[10:00] Cigar Box - 1.1.4.0
FS[10:00] FS: Prepar3D V4
FS[10:00] FSUIPC: v5.15
FS[10:00] Flight Number: MFC37101
FS[10:00] FS Aircraft: Icon A5 RTMM N005MM
FS[10:00] FS Model: LSA
FS[10:00] FS Type: Ultralight
FS[10:00] Departure: PADQ
FS[10:00] Arrival: KPR
FS[10:00] Flight Level: 4500
FS[10:00] Flight Type: H
FS[10:00] Passengers: 0
FS[10:00] FOB: 83 lbs
FS[10:00] Gate: n/a
FS[10:00] NOTE: Parking Brake Ignored
FS[10:00] Crash Detection: Disabled
FS[10:00] Engines: 1 Piston
FS[10:00] NOTE: Boarding has started
FS[10:00] FS: Paused
FS[10:00] Parking Brake: Engaged
FS[10:00] Light Data: Navigation ON
FS[10:00] Light Data: Beacon ON
FS[10:00] Light Data: Landing lights ON
FS[10:00] Light Data: Strobe lights ON
FS[10:00] Light Data: Instrument lights ON
FS[10:00] Main Door Closed
FS[10:00] COM1: 121.90
FS[10:00] COM2: 127.80
FS[10:00] Transponder: 1200
FS[10:00] NAV1: 112.90
FS[10:00] NAV2: 110.60
FS[10:00] ADF1: 890.0
FS[10:00] ADF2: 240.0
FS[10:00] Navigation Mode: GPS
FS[10:00] Navigation Mode: GPS
FS[10:00] FS: Unpaused
FS[10:00] Engine 1: Started
FS[10:01] Parking Brake: Released
FS[10:01] NOTE: Taxi started
FS[10:01] Flaps: Position 1
FS[10:03] NOTE: ----- TAKE OFF -----
FS[10:03] GS: 85 knots
FS[10:03] TAS: 78 knots
FS[10:03] IAS: 77 knots
FS[10:03] VS: 33 fpm
FS[10:03] FOB: 83 lbs
FS[10:03] Heading: 65°
FS[10:03] Pitch: 2°
FS[10:03] Bank: 6°
FS[10:03] Aircraft Weight: 1293.01 lbs
FS[10:03] Nearest Airport: PADQ
FS[10:03] Distance: 0.25 miles
FS[10:03] Runway: 7 - PADQ
FS[10:03] Ground Surface: Asphalt
FS[10:03] Ground Condition: Snow
FS[10:03] NOTE: Weather Report
FS[10:03] Wind Heading: 295°
FS[10:03] Wind Speed: 10 knots
FS[10:03] OAT: 11° C
FS[10:03] TAT: 12° C
FS[10:03] Precipitation: None
FS[10:03] Dew Point: 1° C
FS[10:03] Visibility: 62 miles
FS[10:03] METAR: PADQ 301853Z 12011KT 6SM -RA BR BKN027 OVC032 03/03 A2965 RMK AO2 SLP041 P0002 T00330028 $
FS[10:03] NOTE: Climb started
FS[10:03] Landing Gear: Retracted
FS[10:03] GS: 85 knots
FS[10:03] TAS: 80 knots
FS[10:03] IAS: 79 knots
FS[10:03] VS: 682 fpm
FS[10:03] AGL: 16 ft
FS[10:03] AMSL: 88 ft
FS[10:03] Flaps: Position 0
FS[10:03] GS: 87 knots
FS[10:03] TAS: 81 knots
FS[10:03] IAS: 80 knots
FS[10:03] VS: 1171 fpm
FS[10:03] View Mode: Virtual Cockpit
FS[10:09] FS: Paused
FS[10:09] FS: Unpaused
FS[10:18] Recovery: Flight Saved
FS[10:19] Flaps: Position 1
FS[10:19] GS: 83 knots
FS[10:19] TAS: 88 knots
FS[10:19] IAS: 86 knots
FS[10:19] VS: -479 fpm
FS[10:19] Flaps: Position 2
FS[10:19] GS: 79 knots
FS[10:19] TAS: 82 knots
FS[10:19] IAS: 81 knots
FS[10:19] VS: -645 fpm
FS[10:20] Flaps: Position 3
FS[10:20] GS: 64 knots
FS[10:20] TAS: 69 knots
FS[10:20] IAS: 68 knots
FS[10:20] VS: -748 fpm
FS[10:21] NOTE: ----- LANDED -----
FS[10:21] Landing Rate: -132.26 fpm
FS[10:21] GS: 44 knots
FS[10:21] TAS: 54 knots
FS[10:21] IAS: 54 knots
FS[10:21] VS: -133 fpm
FS[10:21] FOB: 74 lbs
FS[10:21] Heading: 271°
FS[10:21] Pitch: 3°
FS[10:21] Bank: 0°
FS[10:21] Aircraft Weight: 1284.20 lbs
FS[10:21] Nearest Airport: KKB
FS[10:21] Distance: 1.29 miles
FS[10:21] Runway: ???
FS[10:21] Ground Surface: Water
FS[10:21] Ground Condition: Snow
FS[10:21] NOTE: Weather Report
FS[10:21] Wind Heading: 295°
FS[10:21] Wind Speed: 10 knots
FS[10:21] OAT: 12° C
FS[10:21] TAT: 12° C
FS[10:21] Precipitation: None
FS[10:21] Dew Point: 2° C
FS[10:21] Visibility: 62 miles
FS[10:21] METAR: KPRB 301853Z AUTO 32003KT 10SM CLR 08/02 A3016 RMK AO2 SLP215 T00830022 $KPRC 301853Z 00000KT 10SM CLR 06/M12 A2995 RMK AO2 SLP143 T00561117KPRG 301915Z AUTO 19011KT 10SM CLR 02/M01 A3011 RMK AO2 T00241008KPRN 301913Z AUTO 27004KT 10SM BKN010 BKN015 BKN020 23/19 A3006 RMK AO2 CIG 007V014 T02330189KPRO 301955Z AUTO 20015KT 10SM CLR 02/M01 A2977 RMK AO2 T00171011KPRS 301915Z AUTO 00000KT 10SM OVC031 07/M01 A2997 RMK AO2 T00691010KPRX 301856Z AUTO 02005KT 10SM OVC012 04/02 A3004 RMK AO2 RAE47 PRESFR SLP189 P0002 T00390017
FS[10:21] View Mode: Virtual Cockpit
FS[10:21] Flaps: Position 2
FS[10:21] Flaps: Position 1
FS[10:21] NOTE: Taxi started
FS[10:23] Engine 1: Stopped
FS[10:24] Engine 1: Started
FS[10:24] Flaps: Position 0
FS[10:24] Flaps: Position 1
FS[10:25] View Mode: Virtual Cockpit
FS[10:25] Flaps: Position 0
FS[10:25] GS: 66 knots
FS[10:25] TAS: 77 knots
FS[10:25] IAS: 75 knots
FS[10:25] VS: 1179 fpm
FS[10:35] Flaps: Position 1
FS[10:35] GS: 95 knots
FS[10:35] TAS: 105 knots
FS[10:35] IAS: 103 knots
FS[10:35] VS: -925 fpm
FS[10:35] Flaps: Position 2
FS[10:35] GS: 83 knots
FS[10:35] TAS: 93 knots
FS[10:35] IAS: 92 knots
FS[10:35] VS: -864 fpm
FS[10:36] Flaps: Position 3
FS[10:36] GS: 68 knots
FS[10:36] TAS: 78 knots
FS[10:36] IAS: 78 knots
FS[10:36] VS: -545 fpm
FS[10:36] NOTE: ----- LANDED -----
FS[10:36] Landing Rate: -299.12 fpm
FS[10:36] GS: 46 knots
FS[10:36] TAS: 56 knots
FS[10:36] IAS: 56 knots
FS[10:36] VS: -294 fpm
FS[10:36] FOB: 66 lbs
FS[10:36] Heading: 274°
FS[10:36] Pitch: 3°
FS[10:36] Bank: 0°
FS[10:36] Aircraft Weight: 1276.98 lbs
FS[10:36] Nearest Airport: KPR
FS[10:36] Distance: 1.35 miles
FS[10:36] Runway: ???
FS[10:36] Ground Surface: Water
FS[10:36] Ground Condition: Snow
FS[10:36] NOTE: Weather Report
FS[10:36] Wind Heading: 295°
FS[10:36] Wind Speed: 10 knots
FS[10:36] OAT: 14° C
FS[10:36] TAT: 14° C
FS[10:36] Precipitation: None
FS[10:36] Dew Point: 12° C
FS[10:36] Visibility: 62 miles
FS[10:36] METAR: KPRB 301853Z AUTO 32003KT 10SM CLR 08/02 A3016 RMK AO2 SLP215 T00830022 $KPRC 301853Z 00000KT 10SM CLR 06/M12 A2995 RMK AO2 SLP143 T00561117KPRG 301915Z AUTO 19011KT 10SM CLR 02/M01 A3011 RMK AO2 T00241008KPRN 301913Z AUTO 27004KT 10SM BKN010 BKN015 BKN020 23/19 A3006 RMK AO2 CIG 007V014 T02330189KPRO 301955Z AUTO 20015KT 10SM CLR 02/M01 A2977 RMK AO2 T00171011KPRS 301915Z AUTO 00000KT 10SM OVC031 07/M01 A2997 RMK AO2 T00691010KPRX 301856Z AUTO 02005KT 10SM OVC012 04/02 A3004 RMK AO2 RAE47 PRESFR SLP189 P0002 T00390017
FS[10:36] View Mode: Virtual Cockpit
FS[10:37] Flaps: Position 2
FS[10:37] Flaps: Position 1
FS[10:37] Flaps: Position 0
FS[10:38] Engine 1: Stopped
FS[10:39] Gate: n/a
FS[10:39] NOTE: Flight Completed
FS[10:39] FS Aircraft: Icon A5 RTMM N005MM
FS[10:39] FS Model: LSA
FS[10:39] FS Type: Ultralight
FS[10:39] FOB: 66 lbs
FS[10:39] Fuel Used: 17 lbs
FS[10:39] Flight Time: 00:36:44
FS[10:39] Flight Time (Dawn): 00:00:00
FS[10:39] Flight Time (Day): 00:36:44
FS[10:39] Flight Time (Dusk): 00:00:00
FS[10:39] Flight Time (Night): 00:00:00
FS[10:39] Total Landings: 2
FS[10:39] MaxSim Rate: 0x
FS[10:39] Cigar Box - 1.1.4.0
FS[10:39] ----- Flight Closed -----

Route Map